createdAt,value
2019-05-29T00:01:16.184Z,99.90
2019-05-29T00:03:57.935Z,99.90
2019-05-29T00:06:43.315Z,99.90
2019-05-29T00:09:28.690Z,99.90
2019-05-29T00:12:18.401Z,99.90
2019-05-29T00:15:00.750Z,99.90
2019-05-29T00:17:46.403Z,99.90
2019-05-29T00:20:31.702Z,99.90
2019-05-29T00:23:16.887Z,99.90
2019-05-29T00:26:02.338Z,99.90
2019-05-29T00:28:47.403Z,99.90
2019-05-29T00:31:32.880Z,99.90
2019-05-29T00:34:18.559Z,99.90
2019-05-29T00:37:04.338Z,99.90
2019-05-29T00:39:50.225Z,99.90
2019-05-29T00:42:36.080Z,99.90
2019-05-29T00:45:20.910Z,99.90
2019-05-29T00:48:06.136Z,99.90
2019-05-29T00:50:51.539Z,99.90
2019-05-29T00:53:36.390Z,99.90
2019-05-29T00:56:21.713Z,99.90
2019-05-29T00:59:07.306Z,99.90
2019-05-29T01:01:52.894Z,99.90
2019-05-29T01:04:38.082Z,99.90
2019-05-29T01:07:24.266Z,99.90
2019-05-29T01:10:13.078Z,99.90
2019-05-29T01:12:58.544Z,99.90
2019-05-29T01:15:43.371Z,99.90
2019-05-29T01:18:29.637Z,99.90
2019-05-29T01:21:15.949Z,99.90
2019-05-29T01:24:01.088Z,99.90
2019-05-29T01:26:46.652Z,99.90
2019-05-29T01:29:32.150Z,99.90
2019-05-29T01:32:17.574Z,99.90
2019-05-29T01:35:02.936Z,99.90
2019-05-29T01:37:48.546Z,99.90
2019-05-29T01:40:34.639Z,99.90
2019-05-29T01:43:19.447Z,99.90
2019-05-29T01:46:04.865Z,99.90
2019-05-29T01:48:50.206Z,99.90
2019-05-29T01:51:35.320Z,99.90
2019-05-29T01:54:21.650Z,99.90
2019-05-29T01:57:06.653Z,99.90
2019-05-29T01:59:51.752Z,99.90
2019-05-29T02:02:36.563Z,99.90
2019-05-29T02:05:22.074Z,99.90
2019-05-29T02:08:07.102Z,99.90
2019-05-29T02:10:51.938Z,99.90
2019-05-29T02:13:37.003Z,99.90
2019-05-29T02:16:22.705Z,99.90
2019-05-29T02:19:08.610Z,99.90
2019-05-29T02:21:53.666Z,99.90
2019-05-29T02:24:39.038Z,99.90
2019-05-29T02:27:25.569Z,99.90
2019-05-29T02:30:11.009Z,99.90
2019-05-29T02:32:56.458Z,99.90
2019-05-29T02:35:41.959Z,99.90
2019-05-29T02:38:27.640Z,99.90
2019-05-29T02:41:14.459Z,99.90
2019-05-29T02:43:59.785Z,99.90
2019-05-29T02:46:45.156Z,99.90
2019-05-29T02:49:30.588Z,99.90
2019-05-29T02:52:16.029Z,99.90
2019-05-29T02:55:01.395Z,99.90
2019-05-29T02:57:46.639Z,99.90
2019-05-29T03:00:50.787Z,99.90
2019-05-29T03:03:39.661Z,99.90
2019-05-29T03:06:24.018Z,99.90
2019-05-29T03:09:09.643Z,99.90
2019-05-29T03:11:59.619Z,99.90
2019-05-29T03:14:42.131Z,99.90
2019-05-29T03:17:27.912Z,99.90
2019-05-29T03:20:13.380Z,99.90
2019-05-29T03:22:59.060Z,99.90
2019-05-29T03:25:44.841Z,99.90
2019-05-29T03:28:30.094Z,99.90
2019-05-29T03:31:15.362Z,99.90
2019-05-29T03:34:01.069Z,99.90
2019-05-29T03:36:48.737Z,99.90
2019-05-29T03:39:34.603Z,99.90
2019-05-29T03:42:20.342Z,99.90
2019-05-29T03:45:05.916Z,99.90
2019-05-29T03:47:51.500Z,99.90
2019-05-29T03:50:38.168Z,99.90
2019-05-29T03:53:23.507Z,99.90
2019-05-29T03:56:08.374Z,99.90
2019-05-29T03:58:53.344Z,99.90
2019-05-29T04:01:38.224Z,99.90
2019-05-29T04:04:23.721Z,99.90
2019-05-29T04:07:08.974Z,99.90
2019-05-29T04:09:54.226Z,99.90
2019-05-29T04:12:40.250Z,99.90
2019-05-29T04:15:25.069Z,99.90
2019-05-29T04:18:10.444Z,99.90
2019-05-29T04:20:55.263Z,99.90
2019-05-29T04:23:40.712Z,99.90
2019-05-29T04:26:27.804Z,99.90
2019-05-29T04:29:13.391Z,99.90
2019-05-29T04:31:59.111Z,99.90
2019-05-29T04:34:44.625Z,99.90
2019-05-29T04:37:30.431Z,99.90
2019-05-29T04:40:15.310Z,99.90
2019-05-29T04:43:00.964Z,99.90
2019-05-29T04:45:46.643Z,99.90
2019-05-29T04:48:34.006Z,99.90
2019-05-29T04:51:19.119Z,99.90
2019-05-29T04:54:04.427Z,99.90
2019-05-29T04:56:49.834Z,99.90
2019-05-29T04:59:35.339Z,99.90
2019-05-29T05:02:20.822Z,99.90
2019-05-29T05:05:06.293Z,99.90
2019-05-29T05:07:51.554Z,99.90
2019-05-29T05:10:38.017Z,99.90
2019-05-29T05:13:24.050Z,99.90
2019-05-29T05:16:08.951Z,99.90
2019-05-29T05:18:54.027Z,99.90
2019-05-29T05:21:40.263Z,99.90
2019-05-29T05:24:25.126Z,99.90
2019-05-29T05:27:10.586Z,99.90
2019-05-29T05:29:55.847Z,99.90
2019-05-29T05:32:41.154Z,99.90
2019-05-29T05:35:26.906Z,99.90
2019-05-29T05:38:12.174Z,99.90
2019-05-29T05:40:57.711Z,99.90
2019-05-29T05:43:43.253Z,99.90
2019-05-29T05:46:28.381Z,99.90
2019-05-29T05:49:13.456Z,99.90
2019-05-29T05:51:59.338Z,99.90
2019-05-29T05:54:45.327Z,99.90
2019-05-29T05:57:31.492Z,99.90
2019-05-29T06:00:19.630Z,99.90
2019-05-29T06:03:05.126Z,99.90
2019-05-29T06:05:51.105Z,99.90
2019-05-29T06:08:36.209Z,99.90
2019-05-29T06:11:22.053Z,99.90
2019-05-29T06:14:07.381Z,99.90
2019-05-29T06:16:52.840Z,99.90
2019-05-29T06:19:39.000Z,99.90
2019-05-29T06:22:24.209Z,99.90
2019-05-29T06:25:09.546Z,99.90
2019-05-29T06:27:54.805Z,99.90
2019-05-29T06:30:41.226Z,99.90
2019-05-29T06:33:26.625Z,99.90
2019-05-29T06:36:12.387Z,99.90
2019-05-29T06:38:57.916Z,99.90
2019-05-29T06:41:44.350Z,99.90
2019-05-29T06:44:29.799Z,99.90
2019-05-29T06:47:15.470Z,99.90
2019-05-29T06:50:01.039Z,99.90
2019-05-29T06:52:46.269Z,99.90
2019-05-29T06:55:32.107Z,99.90
2019-05-29T06:58:17.524Z,99.90
2019-05-29T07:01:02.781Z,99.90
2019-05-29T07:03:48.359Z,99.90
2019-05-29T07:06:33.690Z,99.90
2019-05-29T07:09:19.307Z,99.90
2019-05-29T07:12:04.832Z,99.90
2019-05-29T07:14:50.200Z,99.90
2019-05-29T07:17:36.275Z,99.90
2019-05-29T07:20:21.319Z,99.90
2019-05-29T07:23:06.519Z,99.90
2019-05-29T07:25:52.300Z,99.90
2019-05-29T07:28:37.325Z,99.90
2019-05-29T07:31:24.682Z,99.90
2019-05-29T07:34:09.948Z,99.90
2019-05-29T07:36:55.319Z,99.50
2019-05-29T07:39:41.447Z,98.80
2019-05-29T07:42:27.086Z,98.90
2019-05-29T07:45:12.146Z,97.60
2019-05-29T07:47:57.436Z,95.50
2019-05-29T07:50:42.611Z,96.60
2019-05-29T07:53:28.774Z,92.50
2019-05-29T07:56:22.148Z,90.90
2019-05-29T07:59:03.277Z,90.10
2019-05-29T08:01:49.257Z,84.40
2019-05-29T08:04:34.862Z,84.30
2019-05-29T08:07:20.345Z,83.30
2019-05-29T08:10:05.979Z,80.50
2019-05-29T08:12:55.576Z,81.90
2019-05-29T08:15:55.301Z,80.90
2019-05-29T08:18:26.465Z,77.80
2019-05-29T08:21:11.618Z,81.30
2019-05-29T08:23:57.580Z,76.80
2019-05-29T08:26:44.683Z,72.20
2019-05-29T08:29:30.610Z,68.60
2019-05-29T08:32:16.661Z,74.90
2019-05-29T08:35:02.141Z,72.40
2019-05-29T08:37:49.034Z,70.90
2019-05-29T08:40:34.307Z,70.70
2019-05-29T08:43:20.094Z,71.40
2019-05-29T08:46:05.438Z,69.70
2019-05-29T08:48:50.343Z,73.10
2019-05-29T08:51:36.090Z,71.60
2019-05-29T08:54:24.167Z,70.40
2019-05-29T08:57:08.709Z,67.30
2019-05-29T08:59:54.021Z,66.30
2019-05-29T09:02:39.133Z,64.40
2019-05-29T09:05:24.495Z,64.10
2019-05-29T09:08:09.771Z,61.30
2019-05-29T09:10:55.124Z,60.40
2019-05-29T09:13:41.138Z,60.80
2019-05-29T09:16:27.014Z,58.70
2019-05-29T09:19:14.124Z,63.20
2019-05-29T09:21:59.383Z,61.20
2019-05-29T09:24:45.675Z,63.50
2019-05-29T09:27:31.003Z,59.30
2019-05-29T09:30:17.129Z,58.90
2019-05-29T09:33:03.634Z,58.00
2019-05-29T09:35:49.373Z,56.50
2019-05-29T09:38:35.190Z,56.60
2019-05-29T09:41:21.693Z,58.90
2019-05-29T09:44:07.371Z,58.70
2019-05-29T09:46:52.635Z,58.00
2019-05-29T09:49:37.801Z,56.70
2019-05-29T09:52:23.179Z,60.10
2019-05-29T09:55:08.455Z,59.20
2019-05-29T09:57:55.287Z,61.60
2019-05-29T10:00:40.409Z,60.70
2019-05-29T10:03:26.306Z,60.40
2019-05-29T10:06:11.223Z,59.50
2019-05-29T10:08:58.028Z,60.50
2019-05-29T10:11:43.314Z,55.60
2019-05-29T10:14:28.703Z,54.80
2019-05-29T10:17:13.992Z,54.40
2019-05-29T10:20:00.677Z,54.00
2019-05-29T10:22:46.061Z,56.20
2019-05-29T10:25:31.423Z,57.70
2019-05-29T10:28:16.728Z,60.90
2019-05-29T10:31:03.987Z,55.90
2019-05-29T10:33:50.295Z,56.50
2019-05-29T10:36:35.900Z,52.20
2019-05-29T10:39:21.552Z,54.30
2019-05-29T10:42:06.963Z,54.40
2019-05-29T10:44:53.032Z,51.40
2019-05-29T10:47:38.182Z,53.70
2019-05-29T10:50:23.446Z,50.80
2019-05-29T10:53:08.969Z,52.40
2019-05-29T10:55:54.951Z,56.20
2019-05-29T10:58:50.657Z,60.00
2019-05-29T11:01:28.312Z,55.90
2019-05-29T11:04:13.405Z,56.30
2019-05-29T11:06:58.784Z,52.90
2019-05-29T11:09:46.410Z,51.60
2019-05-29T11:12:31.805Z,52.50
2019-05-29T11:15:21.559Z,49.00
2019-05-29T11:18:04.163Z,50.70
2019-05-29T11:20:49.422Z,53.40
2019-05-29T11:23:34.758Z,56.00
2019-05-29T11:26:20.281Z,54.40
2019-05-29T11:29:05.370Z,51.20
2019-05-29T11:31:50.641Z,51.30
2019-05-29T11:34:36.549Z,48.20
2019-05-29T11:37:21.723Z,53.50
2019-05-29T11:40:06.767Z,50.30
2019-05-29T11:42:52.786Z,50.70
2019-05-29T11:45:38.551Z,48.50
2019-05-29T11:48:23.685Z,46.00
2019-05-29T11:51:08.563Z,47.50
2019-05-29T11:53:53.625Z,45.80
2019-05-29T11:56:39.221Z,48.50
2019-05-29T11:59:24.307Z,47.30
2019-05-29T12:02:09.640Z,42.90
2019-05-29T12:04:55.175Z,44.50
2019-05-29T12:07:41.111Z,45.00
2019-05-29T12:10:26.582Z,48.50
2019-05-29T12:13:11.849Z,49.10
2019-05-29T12:15:57.730Z,51.40
2019-05-29T12:18:43.270Z,51.80
2019-05-29T12:21:36.220Z,48.70
2019-05-29T12:24:21.321Z,49.70
2019-05-29T12:27:06.518Z,49.10
2019-05-29T12:29:52.628Z,48.50
2019-05-29T12:32:38.010Z,46.10
2019-05-29T12:35:23.725Z,44.80
2019-05-29T12:38:09.098Z,44.90
2019-05-29T12:40:55.342Z,44.70
2019-05-29T12:43:41.033Z,44.50
2019-05-29T12:46:26.338Z,45.70
2019-05-29T12:49:12.138Z,47.50
2019-05-29T12:51:57.803Z,50.10
2019-05-29T12:54:42.805Z,48.60
2019-05-29T12:57:27.659Z,47.30
2019-05-29T13:00:13.102Z,45.40
2019-05-29T13:02:58.825Z,45.10
2019-05-29T13:05:44.042Z,45.10
2019-05-29T13:08:29.718Z,43.70
2019-05-29T13:11:14.733Z,45.40
2019-05-29T13:14:00.592Z,47.80
2019-05-29T13:16:46.190Z,48.70
2019-05-29T13:19:31.855Z,49.30
2019-05-29T13:22:16.803Z,45.40
2019-05-29T13:25:03.364Z,44.60
2019-05-29T13:27:49.157Z,42.40
2019-05-29T13:30:34.305Z,44.80
2019-05-29T13:33:19.962Z,45.90
2019-05-29T13:36:06.730Z,44.10
2019-05-29T13:38:51.873Z,46.10
2019-05-29T13:41:37.039Z,45.30
2019-05-29T13:44:22.513Z,44.40
2019-05-29T13:47:08.492Z,48.10
2019-05-29T13:49:53.867Z,49.70
2019-05-29T13:52:39.275Z,49.70
2019-05-29T13:55:24.873Z,50.10
2019-05-29T13:58:10.194Z,46.70
2019-05-29T14:00:55.471Z,45.80
2019-05-29T14:03:41.045Z,47.20
2019-05-29T14:06:26.302Z,45.60
2019-05-29T14:09:11.388Z,46.10
2019-05-29T14:11:56.850Z,43.20
2019-05-29T14:14:42.318Z,44.80
2019-05-29T14:17:27.687Z,47.90
2019-05-29T14:20:13.465Z,48.90
2019-05-29T14:22:59.563Z,49.70
2019-05-29T14:25:44.770Z,49.10
2019-05-29T14:28:30.608Z,50.00
2019-05-29T14:31:15.873Z,50.10
2019-05-29T14:34:01.126Z,47.30
2019-05-29T14:36:46.244Z,47.20
2019-05-29T14:39:31.530Z,47.90
2019-05-29T14:42:16.895Z,48.30
2019-05-29T14:45:02.717Z,48.10
2019-05-29T14:47:49.231Z,48.90
2019-05-29T14:50:34.597Z,51.20
2019-05-29T14:53:20.282Z,52.40
2019-05-29T14:56:06.599Z,51.40
2019-05-29T14:58:52.152Z,51.20
2019-05-29T15:01:37.387Z,52.20
2019-05-29T15:04:22.743Z,52.00
2019-05-29T15:07:08.099Z,52.10
2019-05-29T15:09:53.337Z,53.70
2019-05-29T15:12:38.500Z,51.70
2019-05-29T15:15:23.674Z,53.70
2019-05-29T15:18:09.901Z,52.00
2019-05-29T15:20:55.517Z,51.60
2019-05-29T15:23:40.562Z,51.50
2019-05-29T15:26:25.677Z,53.60
2019-05-29T15:29:14.286Z,54.80
2019-05-29T15:31:57.933Z,51.60
2019-05-29T15:34:43.322Z,51.90
2019-05-29T15:37:28.273Z,50.90
2019-05-29T15:40:14.774Z,51.20
2019-05-29T15:43:00.768Z,51.10
2019-05-29T15:45:45.915Z,51.90
2019-05-29T15:48:30.802Z,51.60
2019-05-29T15:51:17.140Z,53.20
2019-05-29T15:54:02.855Z,54.50
2019-05-29T15:56:48.738Z,54.50
2019-05-29T15:59:33.866Z,55.30
2019-05-29T16:02:19.653Z,54.10
2019-05-29T16:05:05.358Z,56.30
2019-05-29T16:07:50.768Z,56.10
2019-05-29T16:10:36.492Z,55.40
2019-05-29T16:13:21.584Z,52.00
2019-05-29T16:16:06.855Z,53.20
2019-05-29T16:18:52.418Z,54.10
2019-05-29T16:21:37.751Z,55.90
2019-05-29T16:24:23.020Z,55.40
2019-05-29T16:27:10.472Z,54.60
2019-05-29T16:29:55.641Z,55.50
2019-05-29T16:32:40.555Z,56.40
2019-05-29T16:35:25.596Z,55.30
2019-05-29T16:38:11.322Z,55.30
2019-05-29T16:40:57.342Z,55.30
2019-05-29T16:43:42.453Z,55.00
2019-05-29T16:46:27.470Z,55.80
2019-05-29T16:49:12.833Z,54.90
2019-05-29T16:51:58.034Z,55.70
2019-05-29T16:54:43.609Z,56.60
2019-05-29T16:57:28.984Z,55.60
2019-05-29T17:00:15.647Z,54.80
2019-05-29T17:03:01.494Z,55.10
2019-05-29T17:05:46.637Z,57.60
2019-05-29T17:08:32.050Z,58.30
2019-05-29T17:11:18.554Z,61.80
2019-05-29T17:14:04.041Z,62.90
2019-05-29T17:16:49.271Z,64.80
2019-05-29T17:19:34.666Z,65.10
2019-05-29T17:22:20.958Z,66.30
2019-05-29T17:25:06.655Z,66.50
2019-05-29T17:27:51.981Z,66.10
2019-05-29T17:30:37.911Z,64.60
2019-05-29T17:33:23.486Z,64.00
2019-05-29T17:36:08.612Z,64.90
2019-05-29T17:38:53.975Z,63.90
2019-05-29T17:41:39.138Z,63.20
2019-05-29T17:44:25.299Z,63.60
2019-05-29T17:47:11.506Z,63.30
2019-05-29T17:49:56.838Z,61.80
2019-05-29T17:52:43.909Z,62.80
2019-05-29T17:55:29.213Z,63.90
2019-05-29T17:58:15.718Z,63.50
2019-05-29T18:01:00.965Z,63.90
2019-05-29T18:03:46.867Z,63.70
2019-05-29T18:06:32.107Z,64.10
2019-05-29T18:09:19.194Z,62.40
2019-05-29T18:12:04.414Z,63.20
2019-05-29T18:14:49.990Z,63.70
2019-05-29T18:17:35.565Z,64.40
2019-05-29T18:20:21.705Z,64.70
2019-05-29T18:23:07.126Z,65.90
2019-05-29T18:25:52.605Z,68.30
2019-05-29T18:28:37.635Z,67.60
2019-05-29T18:31:22.943Z,69.00
2019-05-29T18:34:08.734Z,69.00
2019-05-29T18:36:54.193Z,70.40
2019-05-29T18:39:39.562Z,70.20
2019-05-29T18:42:25.650Z,70.00
2019-05-29T18:45:20.395Z,70.40
2019-05-29T18:47:58.389Z,72.30
2019-05-29T18:50:44.348Z,72.60
2019-05-29T18:53:29.957Z,75.10
2019-05-29T18:56:15.446Z,78.20
2019-05-29T18:59:00.809Z,79.10
2019-05-29T19:01:46.324Z,80.00
2019-05-29T19:04:31.979Z,80.90
2019-05-29T19:07:17.521Z,79.40
2019-05-29T19:10:06.798Z,80.10
2019-05-29T19:12:51.499Z,78.20
2019-05-29T19:15:37.166Z,80.10
2019-05-29T19:18:24.062Z,81.30
2019-05-29T19:21:10.566Z,82.60
2019-05-29T19:23:55.924Z,83.20
2019-05-29T19:26:40.869Z,81.60
2019-05-29T19:29:26.918Z,80.70
2019-05-29T19:32:12.964Z,82.10
2019-05-29T19:34:58.465Z,83.40
2019-05-29T19:37:43.730Z,83.10
2019-05-29T19:40:30.191Z,83.20
2019-05-29T19:43:16.409Z,83.60
2019-05-29T19:46:01.523Z,82.90
2019-05-29T19:48:46.921Z,81.70
2019-05-29T19:51:33.500Z,80.00
2019-05-29T19:54:19.222Z,82.60
2019-05-29T19:57:04.217Z,81.40
2019-05-29T19:59:50.211Z,81.90
2019-05-29T20:02:35.127Z,82.30
2019-05-29T20:05:20.185Z,82.50
2019-05-29T20:08:04.993Z,81.60
2019-05-29T20:10:50.534Z,81.40
2019-05-29T20:13:35.937Z,83.30
2019-05-29T20:16:20.984Z,81.50
2019-05-29T20:19:06.332Z,79.90
2019-05-29T20:21:51.464Z,78.10
2019-05-29T20:24:36.883Z,77.50
2019-05-29T20:27:22.830Z,78.00
2019-05-29T20:30:09.457Z,81.10
2019-05-29T20:32:55.446Z,82.00
2019-05-29T20:35:40.921Z,81.20
2019-05-29T20:38:25.957Z,80.00
2019-05-29T20:41:10.943Z,80.00
2019-05-29T20:43:56.218Z,80.50
2019-05-29T20:46:42.766Z,80.60
2019-05-29T20:49:28.818Z,80.60
2019-05-29T20:52:14.174Z,80.40
2019-05-29T20:55:00.056Z,80.70
2019-05-29T20:57:45.118Z,82.10
2019-05-29T21:00:30.372Z,83.50
2019-05-29T21:03:15.490Z,81.50
2019-05-29T21:06:00.686Z,81.20
2019-05-29T21:08:46.811Z,81.10
2019-05-29T21:11:33.320Z,80.70
2019-05-29T21:14:18.845Z,80.30
2019-05-29T21:17:04.771Z,79.90
2019-05-29T21:19:49.485Z,79.80
2019-05-29T21:22:34.883Z,80.00
2019-05-29T21:25:20.265Z,80.80
2019-05-29T21:28:05.386Z,81.40
2019-05-29T21:30:51.013Z,81.90
2019-05-29T21:33:37.696Z,82.30
2019-05-29T21:36:23.631Z,83.10
2019-05-29T21:39:08.842Z,84.10
2019-05-29T21:41:54.502Z,84.20
2019-05-29T21:44:40.673Z,83.70
2019-05-29T21:47:26.410Z,83.20
2019-05-29T21:50:11.886Z,82.80
2019-05-29T21:52:56.848Z,82.20
2019-05-29T21:55:43.593Z,80.90
2019-05-29T21:58:28.888Z,80.80
2019-05-29T22:01:14.298Z,80.60
2019-05-29T22:03:59.770Z,80.50
2019-05-29T22:06:45.238Z,80.40
2019-05-29T22:09:30.710Z,80.10
2019-05-29T22:12:15.982Z,80.10
2019-05-29T22:15:02.790Z,79.90
2019-05-29T22:17:48.852Z,80.00
2019-05-29T22:20:34.774Z,79.90
2019-05-29T22:23:19.978Z,80.10
2019-05-29T22:26:05.162Z,80.10
2019-05-29T22:28:51.122Z,80.20
2019-05-29T22:31:37.161Z,80.30
2019-05-29T22:34:22.050Z,81.50
2019-05-29T22:37:07.361Z,80.50
2019-05-29T22:39:53.610Z,81.40
2019-05-29T22:42:38.901Z,81.30
2019-05-29T22:45:23.939Z,80.30
2019-05-29T22:48:08.822Z,80.40
2019-05-29T22:50:54.041Z,81.60
2019-05-29T22:53:39.166Z,81.70
2019-05-29T22:56:24.002Z,81.70
2019-05-29T22:59:08.932Z,81.70
2019-05-29T23:01:56.303Z,81.70
2019-05-29T23:04:41.559Z,81.80
2019-05-29T23:07:27.005Z,81.80
2019-05-29T23:10:12.665Z,82.40
2019-05-29T23:13:01.148Z,81.70
2019-05-29T23:15:45.102Z,81.50
2019-05-29T23:18:30.459Z,81.50
2019-05-29T23:21:15.490Z,81.60
2019-05-29T23:24:01.799Z,81.60
2019-05-29T23:26:47.114Z,81.70
2019-05-29T23:29:45.781Z,81.70
2019-05-29T23:32:19.069Z,81.90
2019-05-29T23:35:04.078Z,82.10
2019-05-29T23:37:49.449Z,82.20
2019-05-29T23:40:34.736Z,82.30
2019-05-29T23:43:20.502Z,83.30
2019-05-29T23:46:05.826Z,83.80
2019-05-29T23:48:51.146Z,85.50
2019-05-29T23:51:36.819Z,85.30
2019-05-29T23:54:22.634Z,85.20
2019-05-29T23:57:07.969Z,86.10
